TAF SBGR
SBGR 090300Z 0906/1012 14005KT 8000 BKN010 TN14/0907Z TX21/0918Z BECMG 0913/0915 14010KT BKN020 BECMG 0919/0921 BKN017 BECMG 1000/1002 13005KT BKN011 PROB30 1007/1011 09003KT BKN007 RMK PGH=
METAR SBGR
SBGR 090800Z 13003KT 9999 BKN015 15/13 Q1017=
SBGR 090700Z 16003KT 9999 SCT015 BKN030 15/13 Q1017=
SBGR 090600Z 16005KT 9999 BKN015 15/13 Q1017=
SBGR 090500Z 13004KT 9999 BKN023 15/13 Q1017=
SBGR 090400Z 09001KT 9999 SCT026 15/13 Q1017=
WC SBGR
WS SBGR
WV SBGR